Time;durP1;ratioP1;P1;durP2;ratioP2;P2;SDS_P1;SDS_P2;PMS_P1;PMS_P2;Temp;Humidity;BMP_temperature;BMP_pressure;BME280_temperature;BME280_humidity;BME280_pressure;Samples;Min_cycle;Max_cycle;Signal;HPM_P1;HPM_P2
2023/06/22 00:00:42;;;;;;;17.83;12.00;;;;;;;21.34;73.90;99134.88;4958095;28;20026;-77
2023/06/22 00:03:07;;;;;;;12.57;10.05;;;;;;;21.41;73.16;99131.72;4963691;28;20125;-77
2023/06/22 00:05:34;;;;;;;18.65;11.07;;;;;;;21.40;73.24;99135.56;4977604;28;20073;-79
2023/06/22 00:08:04;;;;;;;20.55;12.13;;;;;;;21.35;72.80;99136.50;4968309;28;20034;-77
2023/06/22 00:10:29;;;;;;;13.27;11.15;;;;;;;21.33;73.30;99127.03;4972283;28;20076;-78
2023/06/22 00:12:54;;;;;;;21.52;11.32;;;;;;;21.38;72.75;99114.13;4968687;28;20750;-78
2023/06/22 00:15:20;;;;;;;17.25;10.98;;;;;;;21.21;73.07;99108.59;4977708;28;20149;-78
2023/06/22 00:17:45;;;;;;;24.70;16.10;;;;;;;19.96;78.56;99096.88;4973460;28;20034;-78
2023/06/22 00:20:11;;;;;;;38.28;17.38;;;;;;;19.60;80.35;99106.03;4971964;28;20035;-78
2023/06/22 00:22:38;;;;;;;29.55;16.48;;;;;;;19.51;80.48;99113.22;4970175;28;20114;-77
2023/06/22 00:25:07;;;;;;;22.20;12.88;;;;;;;20.10;77.97;99113.13;4969023;28;20117;-77
2023/06/22 00:27:33;;;;;;;23.20;12.30;;;;;;;20.63;75.47;99108.69;4984645;28;20030;-77
2023/06/22 00:29:59;;;;;;;27.63;12.18;;;;;;;20.67;75.20;99114.28;4983822;28;20039;-78
2023/06/22 00:32:24;;;;;;;32.45;14.68;;;;;;;20.60;75.03;99093.03;4983771;28;20030;-78
2023/06/22 00:34:50;;;;;;;21.83;12.38;;;;;;;20.42;75.98;99093.97;4965537;28;20485;-77
2023/06/22 00:37:15;;;;;;;23.58;12.85;;;;;;;20.79;74.45;99098.28;4972789;28;20030;-78
2023/06/22 00:39:42;;;;;;;17.25;10.20;;;;;;;20.83;74.09;99091.94;4986244;28;20022;-77
2023/06/22 00:42:07;;;;;;;16.83;11.45;;;;;;;20.77;74.47;99105.94;4989941;28;20039;-77
2023/06/22 00:44:33;;;;;;;36.85;14.98;;;;;;;20.42;76.18;99110.25;4978221;28;20391;-78
2023/06/22 00:47:00;;;;;;;31.02;14.20;;;;;;;19.64;79.94;99101.59;4987306;28;20113;-76
2023/06/22 00:49:25;;;;;;;22.98;12.50;;;;;;;19.81;79.28;99096.41;4988480;28;20394;-77
2023/06/22 00:51:51;;;;;;;25.17;16.90;;;;;;;19.49;80.25;99091.88;4979836;28;20043;-76
2023/06/22 00:54:24;;;;;;;15.82;11.25;;;;;;;19.97;78.02;99084.94;4982230;28;20045;-77
2023/06/22 00:56:56;;;;;;;17.45;12.35;;;;;;;19.74;79.30;99085.97;4983231;28;20034;-77
2023/06/22 00:59:21;;;;;;;19.73;12.70;;;;;;;20.32;76.28;99088.00;4983491;28;20058;-77
2023/06/22 01:01:47;;;;;;;20.02;13.63;;;;;;;20.55;75.40;99090.41;4979205;28;20058;-78
2023/06/22 01:04:13;;;;;;;16.77;12.50;;;;;;;20.77;74.93;99076.84;4976314;28;20039;-77
2023/06/22 01:06:54;;;;;;;17.17;12.05;;;;;;;20.94;74.11;99073.47;4981754;28;20026;-78
2023/06/22 01:09:27;;;;;;;15.95;11.38;;;;;;;20.96;73.71;99073.16;4986255;28;20109;-78
2023/06/22 01:12:01;;;;;;;19.45;10.73;;;;;;;20.96;73.01;99067.72;4978866;28;20030;-78
2023/06/22 01:14:37;;;;;;;19.70;11.27;;;;;;;21.05;73.75;99069.41;4976364;28;20223;-78
2023/06/22 01:17:05;;;;;;;16.30;11.10;;;;;;;20.96;73.67;99073.16;4977276;28;20109;-78
2023/06/22 01:19:47;;;;;;;19.77;11.27;;;;;;;20.95;73.60;99077.78;4976369;28;20093;-78
2023/06/22 01:22:17;;;;;;;14.93;11.73;;;;;;;20.94;73.84;99068.03;4964411;28;20062;-78
2023/06/22 01:25:10;;;;;;;16.67;11.32;;;;;;;20.72;74.33;99074.28;4980042;28;20035;-78
2023/06/22 01:28:02;;;;;;;31.85;15.02;;;;;;;19.79;78.72;99060.69;4974470;28;20030;-78
2023/06/22 01:30:30;;;;;;;20.52;11.90;;;;;;;20.34;75.95;99061.38;4986145;28;20026;-78
2023/06/22 01:32:59;;;;;;;16.52;10.90;;;;;;;20.65;74.83;99054.13;4989527;28;20490;-78
2023/06/22 01:35:25;;;;;;;27.48;15.88;;;;;;;20.57;74.83;99049.44;4981583;28;20037;-77
2023/06/22 01:37:51;;;;;;;23.10;12.52;;;;;;;20.35;76.03;99058.38;4986871;28;20061;-77
2023/06/22 01:40:16;;;;;;;18.92;11.95;;;;;;;20.71;74.70;99047.44;4984997;28;20034;-77
2023/06/22 01:42:43;;;;;;;15.02;11.10;;;;;;;20.85;73.81;99045.47;4987879;28;20034;-77
2023/06/22 01:45:10;;;;;;;22.75;11.15;;;;;;;20.81;74.04;99049.94;4969305;28;20487;-77
2023/06/22 01:47:35;;;;;;;21.98;11.35;;;;;;;20.77;74.33;99055.16;4988844;28;20046;-77
2023/06/22 01:50:01;;;;;;;22.00;10.80;;;;;;;20.82;74.21;99059.66;4983314;28;20035;-77
2023/06/22 01:52:26;;;;;;;16.67;11.00;;;;;;;20.80;74.38;99057.25;4988004;28;20026;-77
2023/06/22 01:54:52;;;;;;;18.88;11.65;;;;;;;20.80;74.50;99059.16;4950421;28;20406;-77
2023/06/22 01:57:18;;;;;;;27.42;16.95;;;;;;;20.23;77.53;99055.38;4971639;28;20175;-77
2023/06/22 01:59:48;;;;;;;18.75;13.50;;;;;;;19.85;79.97;99060.28;4988611;28;20117;-77
2023/06/22 02:02:16;;;;;;;18.27;11.27;;;;;;;20.54;75.73;99056.28;4978675;28;20068;-77
2023/06/22 02:04:54;;;;;;;17.08;11.00;;;;;;;20.74;74.78;99044.94;4985900;28;20439;-77
2023/06/22 02:07:23;;;;;;;19.42;11.82;;;;;;;20.85;74.42;99056.34;4984601;28;20118;-77
2023/06/22 02:09:51;;;;;;;19.85;12.05;;;;;;;20.91;73.77;99065.94;4984600;28;20038;-78
2023/06/22 02:12:22;;;;;;;18.90;11.77;;;;;;;20.84;74.22;99062.84;4981095;28;20129;-77
2023/06/22 02:14:48;;;;;;;19.50;11.57;;;;;;;20.87;74.31;99070.38;4972856;28;20065;-77
2023/06/22 02:17:14;;;;;;;22.02;14.02;;;;;;;20.80;74.66;99073.53;4961335;28;20065;-78
2023/06/22 02:19:42;;;;;;;26.65;14.07;;;;;;;20.83;74.63;99074.84;4974053;28;20093;-77
2023/06/22 02:22:08;;;;;;;21.20;12.95;;;;;;;20.82;74.69;99082.16;4972328;28;20030;-77
2023/06/22 02:24:33;;;;;;;27.75;14.48;;;;;;;20.87;74.64;99086.66;4968532;28;20426;-78
2023/06/22 02:26:59;;;;;;;22.50;13.98;;;;;;;20.86;74.42;99091.28;4943348;28;20065;-78
2023/06/22 02:29:25;;;;;;;28.67;15.40;;;;;;;20.82;74.52;99103.88;4971167;28;20034;-78
2023/06/22 02:31:50;;;;;;;24.15;14.82;;;;;;;20.82;75.13;99101.16;4967388;28;20038;-78
2023/06/22 02:34:18;;;;;;;23.27;14.95;;;;;;;20.83;74.96;99110.91;4960883;28;20092;-78
2023/06/22 02:36:51;;;;;;;20.55;14.60;;;;;;;20.82;74.88;99114.72;4967682;28;20098;-77
2023/06/22 02:39:22;;;;;;;27.75;15.70;;;;;;;20.83;75.29;99115.53;4970902;28;20045;-78
2023/06/22 02:41:49;;;;;;;30.45;15.52;;;;;;;20.78;75.10;99110.22;4980155;28;20031;-77
2023/06/22 02:44:15;;;;;;;31.17;15.80;;;;;;;20.86;74.89;99112.19;4980813;28;20045;-77
2023/06/22 02:46:40;;;;;;;26.42;15.52;;;;;;;20.77;75.31;99122.19;4977872;28;20023;-77
2023/06/22 02:49:06;;;;;;;20.88;14.23;;;;;;;20.75;75.35;99111.63;4979423;28;20065;-77
2023/06/22 02:51:34;;;;;;;25.73;15.90;;;;;;;20.73;75.41;99121.19;4963968;28;20034;-78
2023/06/22 02:53:59;;;;;;;24.48;18.95;;;;;;;20.17;80.32;99118.94;4976234;28;20043;-78
2023/06/22 02:56:25;;;;;;;24.13;20.35;;;;;;;19.67;83.23;99123.50;4972184;28;20040;-77
2023/06/22 02:58:51;;;;;;;30.90;22.83;;;;;;;19.21;85.87;99115.41;4978616;28;20026;-77
2023/06/22 03:01:16;;;;;;;28.58;22.73;;;;;;;19.12;87.51;99119.88;4978986;28;20045;-77
2023/06/22 03:03:42;;;;;;;31.52;23.58;;;;;;;19.12;86.88;99122.59;4981575;28;20033;-77
2023/06/22 03:06:07;;;;;;;32.88;22.00;;;;;;;19.16;86.55;99128.19;4981842;28;20034;-77
2023/06/22 03:08:32;;;;;;;34.47;23.60;;;;;;;19.11;86.55;99120.19;4975517;28;20077;-77
2023/06/22 03:10:58;;;;;;;34.70;22.38;;;;;;;19.14;87.16;99120.38;4980591;28;20399;-77
2023/06/22 03:13:27;;;;;;;26.98;19.65;;;;;;;19.33;84.42;99112.22;4973757;28;20440;-78
2023/06/22 03:15:52;;;;;;;18.58;15.38;;;;;;;19.33;84.00;99113.00;4980700;28;20030;-78
2023/06/22 03:18:18;;;;;;;18.45;15.23;;;;;;;20.19;78.42;99114.81;4976782;28;20402;-77
2023/06/22 03:20:43;;;;;;;40.70;22.90;;;;;;;19.78;81.76;99111.34;4980666;28;20034;-77
2023/06/22 03:23:09;;;;;;;20.38;14.82;;;;;;;19.76;80.85;99105.44;4976841;28;20045;-78
2023/06/22 03:25:35;;;;;;;24.17;14.80;;;;;;;19.86;80.56;99109.81;4968667;28;20451;-77
2023/06/22 03:28:00;;;;;;;33.13;21.50;;;;;;;19.75;81.80;99122.78;4977905;28;20039;-77
2023/06/22 03:30:26;;;;;;;33.92;20.58;;;;;;;19.70;82.39;99122.09;4972073;28;20035;-77
2023/06/22 03:32:51;;;;;;;42.38;25.50;;;;;;;19.27;85.92;99118.78;4985020;28;20538;-77
2023/06/22 03:35:17;;;;;;;27.30;19.17;;;;;;;19.83;81.50;99116.66;4965874;28;20034;-77
2023/06/22 03:37:42;;;;;;;35.20;22.83;;;;;;;19.57;83.70;99107.41;4979645;28;20057;-77
2023/06/22 03:40:08;;;;;;;29.02;21.23;;;;;;;19.79;81.99;99112.16;4968196;28;20043;-77
2023/06/22 03:42:35;;;;;;;25.63;17.27;;;;;;;19.90;80.07;99102.69;4984397;28;20455;-77
2023/06/22 03:45:01;;;;;;;39.22;22.92;;;;;;;20.05;80.04;99092.34;4984721;28;20034;-77
2023/06/22 03:47:26;;;;;;;36.03;23.13;;;;;;;19.24;85.86;99082.28;4976643;28;20077;-77
2023/06/22 03:49:54;;;;;;;38.63;24.42;;;;;;;19.15;86.28;99078.72;4976954;28;20037;-77
2023/06/22 03:52:20;;;;;;;25.48;17.83;;;;;;;19.50;82.77;99079.16;4978922;28;20041;-77
2023/06/22 03:54:46;;;;;;;19.88;15.30;;;;;;;19.79;80.99;99076.94;4954759;28;20047;-77
2023/06/22 03:57:11;;;;;;;24.38;17.90;;;;;;;19.78;80.51;99086.97;4975551;28;20090;-77
2023/06/22 03:59:37;;;;;;;22.23;15.43;;;;;;;19.85;80.94;99076.53;4978859;28;20121;-78
2023/06/22 04:02:02;;;;;;;31.02;20.48;;;;;;;20.13;78.76;99075.38;4987452;28;20037;-78
2023/06/22 04:04:28;;;;;;;29.92;20.85;;;;;;;19.56;83.08;99069.81;4970134;28;20029;-77
2023/06/22 04:06:53;;;;;;;17.83;13.68;;;;;;;20.08;79.28;99075.47;4967731;28;20036;-78
2023/06/22 04:09:19;;;;;;;20.98;14.75;;;;;;;20.43;77.15;99071.19;4982507;28;20030;-78
2023/06/22 04:11:44;;;;;;;20.60;14.85;;;;;;;20.24;78.67;99077.88;4987394;28;20038;-78
2023/06/22 04:14:09;;;;;;;30.48;14.43;;;;;;;20.57;77.04;99079.28;4957030;28;20081;-79
2023/06/22 04:16:35;;;;;;;30.05;20.20;;;;;;;20.35;78.82;99079.25;4971317;28;20073;-78
2023/06/22 04:19:00;;;;;;;16.48;13.18;;;;;;;20.67;76.30;99076.31;4984545;28;20062;-78
2023/06/22 04:21:25;;;;;;;21.70;14.60;;;;;;;20.81;75.79;99080.59;4975424;28;20045;-78
2023/06/22 04:23:51;;;;;;;23.48;13.68;;;;;;;20.81;75.96;99064.31;4974272;28;20109;-79
2023/06/22 04:26:16;;;;;;;19.55;13.32;;;;;;;20.72;75.77;99070.78;4947662;28;20038;-78
2023/06/22 04:28:41;;;;;;;35.78;21.83;;;;;;;20.49;78.35;99074.56;4976797;28;20121;-78
2023/06/22 04:31:07;;;;;;;29.73;21.58;;;;;;;19.90;82.09;99072.88;4985805;28;20046;-78
2023/06/22 04:33:32;;;;;;;34.00;23.77;;;;;;;19.55;85.10;99076.34;4980653;28;20796;-78
2023/06/22 04:36:00;;;;;;;33.78;22.70;;;;;;;19.28;86.37;99069.81;4983080;28;20035;-78
2023/06/22 04:38:26;;;;;;;38.13;25.75;;;;;;;18.90;88.80;99065.59;4979765;28;20398;-78
2023/06/22 04:40:53;;;;;;;43.42;26.83;;;;;;;18.95;88.21;99062.81;4972980;28;20022;-78
2023/06/22 04:43:19;;;;;;;28.20;16.02;;;;;;;19.53;82.11;99052.28;4985873;28;20030;-78
2023/06/22 04:45:44;;;;;;;36.53;24.80;;;;;;;19.41;85.61;99063.63;4981136;28;20042;-78
2023/06/22 04:48:09;;;;;;;32.25;25.05;;;;;;;19.18;86.88;99055.63;4975416;28;20034;-78
2023/06/22 04:50:38;;;;;;;39.40;28.13;;;;;;;19.04;88.13;99047.50;4965682;28;20038;-79
2023/06/22 04:53:05;;;;;;;48.95;33.42;;;;;;;18.85;89.69;99041.34;4964740;28;20035;-78
2023/06/22 04:55:31;;;;;;;33.65;18.40;;;;;;;19.14;86.58;99046.50;4972363;28;20035;-79
2023/06/22 04:57:56;;;;;;;19.73;15.02;;;;;;;19.89;80.74;99058.56;4978416;28;20076;-79
2023/06/22 05:00:22;;;;;;;20.73;16.52;;;;;;;20.23;78.65;99060.00;4966274;28;20045;-79
2023/06/22 05:02:48;;;;;;;24.52;15.13;;;;;;;20.45;77.87;99066.25;4974109;28;20042;-79
2023/06/22 05:05:14;;;;;;;22.50;14.52;;;;;;;20.69;76.79;99072.19;4987001;28;20034;-79
2023/06/22 05:07:47;;;;;;;21.10;15.15;;;;;;;20.80;76.58;99068.09;4992550;28;20026;-79
2023/06/22 05:10:13;;;;;;;19.10;14.60;;;;;;;20.85;76.38;99083.47;4980602;28;20872;-79
2023/06/22 05:12:40;;;;;;;24.00;15.05;;;;;;;20.83;75.96;99078.34;4990839;28;20041;-79
2023/06/22 05:15:07;;;;;;;24.80;14.65;;;;;;;20.64;77.12;99076.94;4984923;28;20030;-79
2023/06/22 05:17:32;;;;;;;18.98;13.80;;;;;;;20.49;77.92;99069.97;4977206;28;20517;-79
2023/06/22 05:19:58;;;;;;;27.02;19.48;;;;;;;20.12;83.40;99083.78;4981985;28;20026;-79
2023/06/22 05:22:23;;;;;;;20.95;14.10;;;;;;;19.96;80.74;99058.16;4987401;28;20514;-79
2023/06/22 05:24:49;;;;;;;49.10;22.70;;;;;;;19.50;87.21;99065.63;4985520;28;20128;-79
2023/06/22 05:27:14;;;;;;;32.80;22.17;;;;;;;19.24;89.02;99070.69;4980389;28;20034;-79
2023/06/22 05:29:40;;;;;;;32.75;22.40;;;;;;;19.20;90.01;99054.22;4983224;28;20027;-78
2023/06/22 05:32:06;;;;;;;30.60;22.17;;;;;;;19.19;90.13;99065.38;4978947;28;20121;-79
2023/06/22 05:34:32;;;;;;;28.52;22.88;;;;;;;19.00;92.32;99070.06;4977872;28;20035;-79
2023/06/22 05:36:58;;;;;;;29.20;20.65;;;;;;;19.50;87.32;99065.63;4966233;28;20046;-79
2023/06/22 05:39:25;;;;;;;33.25;23.75;;;;;;;19.22;91.12;99065.56;4985926;28;20395;-79
2023/06/22 05:41:50;;;;;;;38.75;26.52;;;;;;;19.14;91.63;99065.44;4981899;28;20073;-78
2023/06/22 05:44:16;;;;;;;34.30;25.52;;;;;;;19.08;92.78;99055.81;4991788;28;20505;-78
2023/06/22 05:46:44;;;;;;;35.85;26.42;;;;;;;18.82;94.30;99051.97;4971089;28;20070;-79
2023/06/22 05:49:10;;;;;;;35.63;29.20;;;;;;;18.93;94.12;99048.00;4984711;28;20556;-79
2023/06/22 05:51:35;;;;;;;36.42;28.98;;;;;;;19.19;93.71;99059.94;4977174;28;20038;-79
2023/06/22 05:54:01;;;;;;;34.10;26.55;;;;;;;19.56;90.17;99065.22;4981252;28;20049;-79
2023/06/22 05:56:26;;;;;;;32.22;27.33;;;;;;;19.56;91.96;99062.50;4952962;28;20505;-79
2023/06/22 05:58:51;;;;;;;30.13;23.52;;;;;;;19.70;89.28;99071.41;4956628;28;20426;-79
2023/06/22 06:01:17;;;;;;;39.55;32.33;;;;;;;19.39;92.41;99063.13;4982120;28;20054;-79
2023/06/22 06:03:42;;;;;;;40.35;34.15;;;;;;;19.64;90.00;99069.09;4981794;28;20491;-79
2023/06/22 06:06:08;;;;;;;37.53;32.25;;;;;;;19.43;91.94;99063.31;4966067;28;20737;-79
2023/06/22 06:08:33;;;;;;;38.67;32.97;;;;;;;19.30;93.32;99062.19;4981450;28;20027;-79
2023/06/22 06:10:58;;;;;;;28.60;22.80;;;;;;;19.50;91.03;99065.63;4978201;28;20399;-79
2023/06/22 06:13:24;;;;;;;45.05;35.28;;;;;;;19.17;94.75;99060.25;4989895;28;20037;-79
2023/06/22 06:15:51;;;;;;;44.35;37.05;;;;;;;19.24;94.36;99065.28;4963743;28;20027;-79
2023/06/22 06:18:17;;;;;;;45.92;35.97;;;;;;;19.41;94.17;99066.31;4976367;28;20026;-79
2023/06/22 06:20:42;;;;;;;30.75;24.58;;;;;;;19.72;91.44;99073.84;4977052;28;20077;-79
2023/06/22 06:23:08;;;;;;;42.33;35.67;;;;;;;19.92;91.65;99076.13;4976981;28;20041;-79
2023/06/22 06:25:33;;;;;;;50.00;40.55;;;;;;;19.55;93.82;99076.34;4958274;28;20113;-79
2023/06/22 06:27:58;;;;;;;48.00;37.65;;;;;;;19.76;94.17;99070.22;4961691;28;20037;-79
2023/06/22 06:30:24;;;;;;;44.63;37.42;;;;;;;19.82;93.63;99063.59;4967815;28;20030;-78
2023/06/22 06:32:50;;;;;;;44.60;36.78;;;;;;;19.84;92.37;99057.84;4985582;28;20439;-78
2023/06/22 06:35:16;;;;;;;48.25;38.13;;;;;;;19.77;93.42;99046.63;4987963;28;20030;-79
2023/06/22 06:37:47;;;;;;;49.22;35.55;;;;;;;20.14;92.29;99059.91;4989005;28;20018;-79
2023/06/22 06:40:13;;;;;;;47.80;35.67;;;;;;;20.23;91.47;99057.28;4973030;28;20035;-79
2023/06/22 06:42:48;;;;;;;38.20;33.15;;;;;;;19.96;91.17;99063.56;4979750;28;20082;-78
2023/06/22 06:45:19;;;;;;;39.50;31.95;;;;;;;20.32;91.01;99061.69;4976238;28;20035;-78
2023/06/22 06:47:45;;;;;;;35.13;30.13;;;;;;;20.37;88.42;99060.78;4988189;28;20073;-78
2023/06/22 06:50:12;;;;;;;35.40;31.48;;;;;;;20.43;89.11;99068.47;4981454;28;20033;-78
2023/06/22 06:52:38;;;;;;;35.75;31.67;;;;;;;20.45;88.64;99062.75;4992127;28;20181;-78
2023/06/22 06:55:08;;;;;;;35.17;29.35;;;;;;;20.60;88.06;99065.09;4990871;28;20085;-78
2023/06/22 06:57:34;;;;;;;31.98;27.88;;;;;;;20.82;87.52;99082.16;4992473;28;20029;-78
2023/06/22 07:00:00;;;;;;;32.35;28.70;;;;;;;20.86;87.46;99066.06;4990651;28;20026;-78
2023/06/22 07:02:29;;;;;;;33.08;26.73;;;;;;;21.28;85.88;99048.44;4975040;28;20045;-78
2023/06/22 07:04:55;;;;;;;35.58;26.58;;;;;;;20.90;84.97;99059.69;4991000;28;20029;-78
2023/06/22 07:07:21;;;;;;;30.65;27.33;;;;;;;21.08;85.42;99055.19;4979772;28;20035;-78
2023/06/22 07:09:46;;;;;;;23.65;21.25;;;;;;;21.34;83.97;99060.78;4971611;28;20034;-78
2023/06/22 07:12:12;;;;;;;34.78;25.40;;;;;;;21.42;83.92;99046.41;4971397;28;20479;-78
2023/06/22 07:14:37;;;;;;;27.88;24.83;;;;;;;21.10;84.27;99044.06;4972668;28;20035;-78
2023/06/22 07:17:03;;;;;;;31.00;24.05;;;;;;;21.58;83.59;99055.72;4971188;28;20038;-78
2023/06/22 07:19:28;;;;;;;29.73;23.10;;;;;;;21.52;83.57;99054.28;4971624;28;20034;-78
2023/06/22 07:21:54;;;;;;;27.98;24.92;;;;;;;21.89;83.48;99040.16;4971775;28;20098;-79
2023/06/22 07:24:21;;;;;;;31.65;23.77;;;;;;;21.92;82.18;99041.47;4984329;28;20521;-79
2023/06/22 07:26:50;;;;;;;26.48;22.45;;;;;;;22.10;81.87;99033.03;4990792;28;20721;-79
2023/06/22 07:29:17;;;;;;;28.52;23.20;;;;;;;21.94;82.02;99036.50;4991423;28;20080;-79
2023/06/22 07:31:42;;;;;;;26.77;22.95;;;;;;;21.98;81.95;99032.03;4991952;28;20088;-79
2023/06/22 07:34:07;;;;;;;25.33;17.58;;;;;;;22.23;80.21;99033.97;4991970;28;20496;-79
2023/06/22 07:36:35;;;;;;;26.05;21.40;;;;;;;22.49;79.79;99034.75;4975644;28;20039;-79
2023/06/22 07:39:01;;;;;;;25.48;20.67;;;;;;;22.82;78.66;99043.22;4971281;28;20035;-79
2023/06/22 07:41:26;;;;;;;23.13;20.65;;;;;;;22.90;79.46;99039.69;4984665;28;20602;-79
2023/06/22 07:43:51;;;;;;;28.92;23.08;;;;;;;22.47;79.22;99025.31;4990296;28;20032;-79
2023/06/22 07:46:17;;;;;;;25.77;20.63;;;;;;;22.74;78.12;99027.69;4958648;28;20189;-78
2023/06/22 07:48:43;;;;;;;27.23;22.52;;;;;;;22.47;77.81;99022.59;4990945;28;20060;-79
2023/06/22 07:51:11;;;;;;;21.55;18.73;;;;;;;22.82;78.12;99026.91;4991125;28;20033;-78
2023/06/22 07:53:36;;;;;;;27.42;20.63;;;;;;;23.04;78.96;99018.50;4990288;28;20022;-79
2023/06/22 07:56:06;;;;;;;24.10;20.35;;;;;;;22.93;77.50;99022.72;4974548;28;20097;-79
2023/06/22 07:58:32;;;;;;;25.80;20.73;;;;;;;22.92;77.77;99031.97;4990947;28;20494;-79
2023/06/22 08:00:57;;;;;;;28.08;21.17;;;;;;;22.96;77.16;99038.38;4991937;28;20069;-79
2023/06/22 08:03:23;;;;;;;23.38;19.67;;;;;;;23.11;77.25;99029.66;4990443;28;20746;-80
2023/06/22 08:05:48;;;;;;;23.38;19.65;;;;;;;23.24;75.75;99030.59;4990780;28;20080;-79
2023/06/22 08:08:14;;;;;;;28.15;20.38;;;;;;;23.23;75.73;99027.09;4990629;28;20077;-79
2023/06/22 08:10:40;;;;;;;21.63;18.08;;;;;;;23.25;75.87;99026.75;4992102;28;20045;-78
2023/06/22 08:13:06;;;;;;;26.67;20.50;;;;;;;23.42;76.14;99024.78;4991572;28;20034;-79
2023/06/22 08:15:31;;;;;;;23.70;20.70;;;;;;;22.91;75.47;99027.69;4990595;28;20559;-79
2023/06/22 08:17:57;;;;;;;24.50;21.83;;;;;;;22.78;76.55;99031.41;4990940;28;20034;-79
2023/06/22 08:20:23;;;;;;;23.42;20.67;;;;;;;22.72;75.26;99027.22;4974889;28;20026;-79
2023/06/22 08:22:48;;;;;;;24.55;20.33;;;;;;;22.93;76.61;99033.59;4991646;28;20118;-79
2023/06/22 08:25:14;;;;;;;19.88;17.38;;;;;;;23.03;77.35;99034.03;4973957;28;20117;-79
2023/06/22 08:27:39;;;;;;;22.70;18.48;;;;;;;23.09;73.92;99021.03;4990441;28;20029;-79
2023/06/22 08:30:06;;;;;;;22.92;19.15;;;;;;;22.96;74.18;99022.03;4990189;28;20030;-79
2023/06/22 08:32:32;;;;;;;14.48;13.23;;;;;;;23.42;74.47;99019.31;4991430;28;20038;-79
2023/06/22 08:34:58;;;;;;;18.77;16.77;;;;;;;23.53;74.79;99015.09;4990931;28;20030;-79
2023/06/22 08:37:24;;;;;;;19.02;15.43;;;;;;;23.69;73.50;98999.78;4991764;28;20033;-79
2023/06/22 08:39:50;;;;;;;17.52;15.73;;;;;;;23.76;73.21;98991.09;4990524;28;20036;-79
2023/06/22 08:42:16;;;;;;;17.00;14.27;;;;;;;24.14;72.22;98989.03;4995120;28;20034;-79
2023/06/22 08:44:41;;;;;;;21.50;16.58;;;;;;;23.90;72.98;98986.16;4977264;28;20595;-79
2023/06/22 08:47:07;;;;;;;18.67;16.27;;;;;;;23.91;73.33;98992.41;4977734;28;20034;-79
2023/06/22 08:49:32;;;;;;;22.40;17.60;;;;;;;23.62;72.54;98980.41;4993738;28;20049;-79
2023/06/22 08:51:57;;;;;;;21.15;16.98;;;;;;;23.67;72.12;98982.16;4994687;28;20073;-79
2023/06/22 08:54:23;;;;;;;21.88;17.35;;;;;;;23.82;74.41;98990.56;4993278;28;20038;-79
2023/06/22 08:56:48;;;;;;;19.27;16.60;;;;;;;24.22;73.28;98995.56;4993573;28;20376;-79
2023/06/22 08:59:14;;;;;;;19.80;17.30;;;;;;;24.07;72.00;98986.03;4994974;28;20037;-79
2023/06/22 09:01:39;;;;;;;19.40;15.85;;;;;;;24.26;71.24;98997.31;4977354;28;20030;-79
2023/06/22 09:04:05;;;;;;;17.08;14.57;;;;;;;24.64;71.62;98991.63;4993495;28;20792;-80
2023/06/22 09:06:31;;;;;;;16.13;14.48;;;;;;;24.51;70.96;98984.53;4993206;28;20152;-79
2023/06/22 09:08:59;;;;;;;19.88;14.25;;;;;;;24.71;70.04;98978.22;4994849;28;20141;-79
2023/06/22 09:11:25;;;;;;;16.42;12.27;;;;;;;25.29;68.91;98972.41;4993350;28;20026;-79
2023/06/22 09:13:51;;;;;;;15.45;13.85;;;;;;;25.45;68.05;98996.34;4994300;28;20179;-79
2023/06/22 09:16:17;;;;;;;16.83;15.07;;;;;;;25.23;68.90;98970.22;4994599;28;20037;-79
2023/06/22 09:18:43;;;;;;;18.27;15.60;;;;;;;24.72;69.36;98977.09;4994480;28;20026;-79
2023/06/22 09:21:08;;;;;;;18.63;16.33;;;;;;;24.46;70.26;98977.34;4994475;28;20046;-79
2023/06/22 09:23:34;;;;;;;20.45;17.00;;;;;;;24.68;70.13;98962.53;4993012;28;20026;-79
2023/06/22 09:25:59;;;;;;;13.07;11.98;;;;;;;25.60;68.60;98952.69;4993197;28;20045;-79
2023/06/22 09:28:25;;;;;;;19.52;14.20;;;;;;;25.06;69.26;98941.22;4993059;28;20105;-79
2023/06/22 09:30:51;;;;;;;17.38;15.27;;;;;;;24.91;69.25;98935.63;4960896;28;20034;-79
2023/06/22 09:33:16;;;;;;;17.60;14.52;;;;;;;24.85;69.56;98948.72;4976098;28;20030;-79
2023/06/22 09:35:41;;;;;;;16.25;14.63;;;;;;;25.07;69.54;98940.09;4992846;28;20034;-78
2023/06/22 09:38:07;;;;;;;18.48;16.52;;;;;;;25.00;68.61;98941.78;4994163;28;20614;-78
2023/06/22 09:40:35;;;;;;;13.73;12.25;;;;;;;25.47;69.30;98933.94;4976665;28;20034;-79
2023/06/22 09:43:00;;;;;;;18.80;14.68;;;;;;;25.73;69.25;98932.38;4976889;28;20406;-78
2023/06/22 09:45:26;;;;;;;26.65;16.35;;;;;;;25.71;69.41;98920.19;4994195;28;20109;-79
2023/06/22 09:47:51;;;;;;;16.17;13.32;;;;;;;26.14;68.60;98925.00;4994006;28;20471;-79
2023/06/22 09:50:16;;;;;;;20.30;14.75;;;;;;;25.65;68.17;98921.59;4994181;28;20026;-79
2023/06/22 09:52:44;;;;;;;17.95;15.95;;;;;;;26.21;67.54;98925.19;4992569;28;20117;-79
2023/06/22 09:55:10;;;;;;;21.38;14.95;;;;;;;25.93;67.97;98923.22;4977421;28;20030;-79
2023/06/22 09:57:35;;;;;;;13.15;11.55;;;;;;;26.78;65.58;98919.31;4976503;28;20031;-80
2023/06/22 10:00:00;;;;;;;16.30;12.60;;;;;;;26.52;66.50;98931.53;4993030;28;20035;-79
2023/06/22 10:02:26;;;;;;;15.77;14.20;;;;;;;26.04;67.29;98938.00;4992493;28;20023;-79
2023/06/22 10:04:51;;;;;;;16.20;14.13;;;;;;;26.73;65.68;98943.06;4992975;28;20057;-80
2023/06/22 10:07:16;;;;;;;14.95;13.40;;;;;;;27.04;66.36;98928.56;4993846;28;20034;-80
2023/06/22 10:09:42;;;;;;;16.73;14.60;;;;;;;26.46;66.42;98930.19;4992188;28;20557;-79
2023/06/22 10:12:07;;;;;;;16.20;13.65;;;;;;;26.59;67.41;98928.97;4975912;28;20868;-79
2023/06/22 10:14:33;;;;;;;16.90;14.20;;;;;;;27.28;64.92;98920.13;4976018;28;20417;-79
2023/06/22 10:16:58;;;;;;;19.20;13.70;;;;;;;27.08;65.46;98921.25;4992202;28;20053;-79
2023/06/22 10:19:23;;;;;;;20.35;14.65;;;;;;;26.52;66.14;98904.13;4991944;28;20083;-79
2023/06/22 10:21:49;;;;;;;18.27;16.20;;;;;;;26.68;65.36;98906.91;4991857;28;20038;-79
2023/06/22 10:24:14;;;;;;;14.40;12.98;;;;;;;26.97;64.41;98908.44;4959334;28;20030;-79
2023/06/22 10:26:39;;;;;;;14.70;13.35;;;;;;;26.51;66.13;98918.19;4991659;28;20030;-79
2023/06/22 10:29:05;;;;;;;13.90;12.60;;;;;;;27.21;65.15;98905.50;4993160;28;20113;-79
2023/06/22 10:31:30;;;;;;;13.23;10.95;;;;;;;27.78;63.23;98897.41;4991902;28;20638;-80
2023/06/22 10:33:56;;;;;;;13.88;12.48;;;;;;;27.89;62.36;98883.88;4993045;28;20081;-80
2023/06/22 10:36:23;;;;;;;15.55;14.05;;;;;;;27.45;62.29;98883.34;4986351;28;20038;-80
2023/06/22 10:38:49;;;;;;;12.77;11.57;;;;;;;27.84;62.78;98879.47;4991750;28;20371;-80
2023/06/22 10:41:14;;;;;;;14.10;12.70;;;;;;;27.70;63.34;98870.16;4975648;28;20089;-79
2023/06/22 10:43:40;;;;;;;12.90;11.52;;;;;;;27.63;63.76;98870.03;4975716;28;20030;-80
2023/06/22 10:46:06;;;;;;;14.88;11.88;;;;;;;27.77;62.70;98878.53;4975822;28;20030;-80
2023/06/22 10:48:32;;;;;;;11.68;10.48;;;;;;;27.86;62.63;98874.44;4992936;28;20062;-80
2023/06/22 10:50:57;;;;;;;12.95;10.90;;;;;;;27.32;61.57;98859.94;4975619;28;20123;-79
2023/06/22 10:53:23;;;;;;;12.07;10.90;;;;;;;27.66;61.34;98866.53;4991023;28;20022;-80
2023/06/22 10:55:48;;;;;;;13.95;11.20;;;;;;;27.98;60.52;98857.81;4991483;28;20364;-79
2023/06/22 10:58:14;;;;;;;12.60;11.13;;;;;;;27.51;61.21;98859.97;4992711;28;20034;-79
2023/06/22 11:00:39;;;;;;;12.18;10.98;;;;;;;27.37;61.57;98859.66;4992673;28;20050;-79
2023/06/22 11:03:04;;;;;;;11.55;10.50;;;;;;;28.06;61.35;98861.50;4974594;28;20084;-80
2023/06/22 11:05:30;;;;;;;14.65;11.05;;;;;;;28.20;58.88;98857.06;4990767;28;20474;-80
2023/06/22 11:07:55;;;;;;;11.77;10.57;;;;;;;28.00;58.73;98849.25;4991399;28;20410;-80
2023/06/22 11:10:21;;;;;;;12.25;10.10;;;;;;;28.14;61.00;98847.56;4991253;28;20371;-79
2023/06/22 11:12:46;;;;;;;11.73;9.70;;;;;;;28.49;58.61;98846.59;4992390;28;20066;-80